createdAt,value
2019-04-20T00:00:06.729Z,1013.02
2019-04-20T00:01:03.767Z,1013.05
2019-04-20T00:02:08.298Z,1013.00
2019-04-20T00:03:05.553Z,1013.06
2019-04-20T00:04:03.199Z,1013.03
2019-04-20T00:05:03.400Z,1013.04
2019-04-20T00:06:03.532Z,1013.07
2019-04-20T00:07:04.014Z,1013.11
2019-04-20T00:08:08.915Z,1013.06
2019-04-20T00:09:12.269Z,1013.01
2019-04-20T00:10:13.079Z,1012.96
2019-04-20T00:11:12.697Z,1012.96
2019-04-20T00:12:12.701Z,1013.01
2019-04-20T00:13:19.449Z,1012.98
2019-04-20T00:14:13.438Z,1012.94
2019-04-20T00:15:07.009Z,1012.92
2019-04-20T00:16:06.086Z,1012.99
2019-04-20T00:17:05.266Z,1013.01
2019-04-20T00:18:08.092Z,1013.00
2019-04-20T00:19:07.709Z,1012.99
2019-04-20T00:20:13.344Z,1012.96
2019-04-20T00:21:10.998Z,1013.02
2019-04-20T00:22:10.565Z,1012.95
2019-04-20T00:23:11.453Z,1012.99
2019-04-20T00:24:13.461Z,1012.99
2019-04-20T00:25:15.449Z,1012.98
2019-04-20T00:26:17.370Z,1013.03
2019-04-20T00:27:29.333Z,1013.00
2019-04-20T00:28:24.036Z,1012.95
2019-04-20T00:29:27.259Z,1012.91
2019-04-20T00:30:32.484Z,1012.97
2019-04-20T00:31:23.655Z,1012.96
2019-04-20T00:32:19.763Z,1012.99
2019-04-20T00:33:27.438Z,1012.95
2019-04-20T00:34:18.242Z,1012.96
2019-04-20T00:35:10.512Z,1012.94
2019-04-20T00:36:09.806Z,1012.93
2019-04-20T00:37:10.811Z,1012.98
2019-04-20T00:38:09.854Z,1012.98
2019-04-20T00:39:11.455Z,1012.88
2019-04-20T00:40:10.164Z,1012.92
2019-04-20T00:41:13.382Z,1012.88
2019-04-20T00:42:14.492Z,1012.89
2019-04-20T00:43:15.125Z,1012.89
2019-04-20T00:44:17.030Z,1012.88
2019-04-20T00:45:19.177Z,1012.93
2019-04-20T00:46:22.214Z,1012.96
2019-04-20T00:47:25.309Z,1012.93
2019-04-20T00:48:22.471Z,1012.95
2019-04-20T00:49:27.562Z,1012.92
2019-04-20T00:50:28.263Z,1012.90
2019-04-20T00:51:31.228Z,1012.86
2019-04-20T00:52:44.838Z,1012.93
2019-04-20T00:53:22.966Z,1012.92
2019-04-20T00:54:13.651Z,1012.85
2019-04-20T00:55:12.692Z,1012.89
2019-04-20T00:56:11.976Z,1012.86
2019-04-20T00:57:22.244Z,1012.90
2019-04-20T00:58:20.116Z,1012.85
2019-04-20T00:59:30.210Z,1012.87
2019-04-20T01:00:35.726Z,1012.84
2019-04-20T01:01:35.856Z,1012.87
2019-04-20T01:02:29.893Z,1012.90
2019-04-20T01:03:29.195Z,1012.87
2019-04-20T01:04:38.863Z,1012.92
2019-04-20T01:05:27.917Z,1012.89
2019-04-20T01:06:34.191Z,1012.83
2019-04-20T01:07:27.373Z,1012.90
2019-04-20T01:08:17.099Z,1012.90
2019-04-20T01:09:14.237Z,1012.93
2019-04-20T01:10:15.181Z,1012.87
2019-04-20T01:11:16.673Z,1012.89
2019-04-20T01:12:21.604Z,1012.93
2019-04-20T01:13:20.362Z,1012.88
2019-04-20T01:14:22.382Z,1012.87
2019-04-20T01:15:28.081Z,1012.88
2019-04-20T01:16:29.282Z,1012.89
2019-04-20T01:17:17.725Z,1012.85
2019-04-20T01:18:16.652Z,1012.89
2019-04-20T01:19:19.305Z,1012.88
2019-04-20T01:20:16.329Z,1012.86
2019-04-20T01:21:20.261Z,1012.91
2019-04-20T01:22:22.198Z,1012.89
2019-04-20T01:23:22.328Z,1012.83
2019-04-20T01:24:24.902Z,1012.90
2019-04-20T01:25:27.062Z,1012.89
2019-04-20T01:26:21.449Z,1012.90
2019-04-20T01:27:32.582Z,1012.94
2019-04-20T01:28:37.480Z,1012.92
2019-04-20T01:29:30.244Z,1012.91
2019-04-20T01:30:28.459Z,1012.90
2019-04-20T01:31:29.603Z,1012.93
2019-04-20T01:32:31.151Z,1012.94
2019-04-20T01:33:34.368Z,1012.92
2019-04-20T01:34:37.893Z,1012.92
2019-04-20T01:35:39.647Z,1012.92
2019-04-20T01:36:42.994Z,1012.94
2019-04-20T01:37:35.432Z,1012.94
2019-04-20T01:38:34.345Z,1012.86
2019-04-20T01:39:28.336Z,1012.91
2019-04-20T01:40:23.202Z,1012.92
2019-04-20T01:41:20.424Z,1013.05
2019-04-20T01:42:21.385Z,1012.99
2019-04-20T01:43:20.732Z,1013.05
2019-04-20T01:44:26.143Z,1013.04
2019-04-20T01:45:29.337Z,1013.01
2019-04-20T01:46:26.391Z,1013.04
2019-04-20T01:47:25.368Z,1013.05
2019-04-20T01:48:28.672Z,1013.04
2019-04-20T01:49:28.629Z,1013.05
2019-04-20T01:50:28.469Z,1012.99
2019-04-20T01:51:29.399Z,1013.07
2019-04-20T01:52:28.800Z,1013.03
2019-04-20T01:53:41.449Z,1013.07
2019-04-20T01:54:38.545Z,1013.03
2019-04-20T01:55:48.107Z,1013.02
2019-04-20T01:56:38.483Z,1013.00
2019-04-20T01:57:37.372Z,1013.03
2019-04-20T01:59:02.761Z,1013.01
2019-04-20T01:59:34.760Z,1013.02
2019-04-20T02:00:30.738Z,1013.05
2019-04-20T02:01:31.060Z,1013.03
2019-04-20T02:02:27.805Z,1013.03
2019-04-20T02:03:31.894Z,1013.03
2019-04-20T02:04:32.316Z,1013.07
2019-04-20T02:05:31.811Z,1013.07
2019-04-20T02:06:28.621Z,1013.02
2019-04-20T02:07:33.555Z,1013.14
2019-04-20T02:08:29.465Z,1013.07
2019-04-20T02:09:29.620Z,1013.08
2019-04-20T02:10:37.061Z,1013.10
2019-04-20T02:11:34.578Z,1013.10
2019-04-20T02:12:31.137Z,1013.12
2019-04-20T02:13:38.926Z,1013.12
2019-04-20T02:14:40.270Z,1013.13
2019-04-20T02:15:36.358Z,1013.09
2019-04-20T02:16:35.708Z,1013.05
2019-04-20T02:17:37.539Z,1013.08
2019-04-20T02:18:41.609Z,1013.11
2019-04-20T02:19:44.199Z,1013.15
2019-04-20T02:20:48.693Z,1013.12
2019-04-20T02:21:47.731Z,1013.13
2019-04-20T02:22:46.467Z,1013.12
2019-04-20T02:23:40.767Z,1013.09
2019-04-20T02:24:32.005Z,1013.12
2019-04-20T02:25:31.129Z,1013.14
2019-04-20T02:26:30.207Z,1013.10
2019-04-20T02:27:36.893Z,1013.08
2019-04-20T02:28:55.397Z,1013.12
2019-04-20T02:29:50.952Z,1013.16
2019-04-20T02:31:14.883Z,1013.12
2019-04-20T02:32:10.085Z,1013.15
2019-04-20T02:34:03.817Z,1013.10
2019-04-20T02:34:59.839Z,1013.08
2019-04-20T02:36:10.979Z,1013.05
2019-04-20T02:37:14.247Z,1013.08
2019-04-20T02:38:18.305Z,1013.12
2019-04-20T02:39:27.225Z,1013.06
2019-04-20T02:42:07.946Z,1013.13
2019-04-20T02:43:09.422Z,1013.10
2019-04-20T02:45:58.060Z,1013.15
2019-04-20T02:49:29.732Z,1013.18
2019-04-20T02:50:07.496Z,1013.11
2019-04-20T02:51:08.917Z,1013.10
2019-04-20T02:53:11.397Z,1013.14
2019-04-20T02:54:18.819Z,1013.12
2019-04-20T02:55:09.296Z,1013.14
2019-04-20T02:57:14.358Z,1013.14
2019-04-20T02:58:12.456Z,1013.13
2019-04-20T03:01:00.184Z,1013.17
2019-04-20T03:01:55.208Z,1013.13
2019-04-20T03:02:53.364Z,1013.12
2019-04-20T03:03:44.958Z,1013.08
2019-04-20T03:04:45.902Z,1013.08
2019-04-20T03:05:51.701Z,1013.12
2019-04-20T03:07:01.050Z,1013.13
2019-04-20T03:07:57.460Z,1013.10
2019-04-20T03:09:06.344Z,1013.11
2019-04-20T03:09:58.650Z,1013.11
2019-04-20T03:11:09.290Z,1013.10
2019-04-20T03:12:04.826Z,1013.11
2019-04-20T03:13:04.040Z,1013.09
2019-04-20T03:14:00.269Z,1013.08
2019-04-20T03:14:57.437Z,1013.11
2019-04-20T03:16:01.896Z,1013.11
2019-04-20T03:17:03.310Z,1013.12
2019-04-20T03:18:03.445Z,1013.17
2019-04-20T03:18:58.441Z,1013.14
2019-04-20T03:19:57.264Z,1013.15
2019-04-20T03:21:08.428Z,1013.15
2019-04-20T03:22:09.542Z,1013.15
2019-04-20T03:24:16.059Z,1013.13
2019-04-20T03:25:07.990Z,1013.15
2019-04-20T03:26:05.381Z,1013.14
2019-04-20T03:26:59.515Z,1013.17
2019-04-20T03:28:05.335Z,1013.15
2019-04-20T03:29:03.977Z,1013.17
2019-04-20T03:30:04.190Z,1013.23
2019-04-20T03:34:38.311Z,1013.24
2019-04-20T03:35:15.523Z,1013.22
2019-04-20T03:36:18.366Z,1013.19
2019-04-20T03:37:15.639Z,1013.22
2019-04-20T03:38:04.637Z,1013.23
2019-04-20T03:39:01.437Z,1013.28
2019-04-20T03:40:01.521Z,1013.30
2019-04-20T03:40:59.105Z,1013.29
2019-04-20T03:41:50.282Z,1013.34
2019-04-20T03:42:48.569Z,1013.31
2019-04-20T03:43:45.748Z,1013.30
2019-04-20T03:44:52.988Z,1013.33
2019-04-20T03:45:54.294Z,1013.32
2019-04-20T03:46:53.103Z,1013.32
2019-04-20T03:47:57.101Z,1013.36
2019-04-20T03:49:04.411Z,1013.31
2019-04-20T03:50:16.742Z,1013.35
2019-04-20T03:51:08.973Z,1013.36
2019-04-20T03:52:09.384Z,1013.35
2019-04-20T03:53:09.906Z,1013.38
2019-04-20T03:54:02.681Z,1013.35
2019-04-20T03:55:07.542Z,1013.35
2019-04-20T03:56:03.752Z,1013.29
2019-04-20T03:57:13.946Z,1013.37
2019-04-20T03:58:10.235Z,1013.35
2019-04-20T03:59:07.676Z,1013.35
2019-04-20T04:00:15.142Z,1013.37
2019-04-20T04:00:59.714Z,1013.33
2019-04-20T04:02:22.511Z,1013.32
2019-04-20T04:03:26.212Z,1013.38
2019-04-20T04:04:10.640Z,1013.38
2019-04-20T04:05:08.929Z,1013.32
2019-04-20T04:06:02.867Z,1013.36
2019-04-20T04:06:55.925Z,1013.39
2019-04-20T04:08:03.170Z,1013.35
2019-04-20T04:09:02.823Z,1013.33
2019-04-20T04:10:09.830Z,1013.42
2019-04-20T04:11:12.387Z,1013.40
2019-04-20T04:12:06.607Z,1013.40
2019-04-20T04:12:53.033Z,1013.38
2019-04-20T04:13:52.448Z,1013.41
2019-04-20T04:14:51.474Z,1013.34
2019-04-20T04:15:57.470Z,1013.38
2019-04-20T04:16:57.033Z,1013.40
2019-04-20T04:17:53.108Z,1013.43
2019-04-20T04:19:01.443Z,1013.41
2019-04-20T04:19:59.970Z,1013.49
2019-04-20T04:21:01.086Z,1013.43
2019-04-20T04:22:08.625Z,1013.41
2019-04-20T04:23:09.983Z,1013.45
2019-04-20T04:24:07.400Z,1013.45
2019-04-20T04:25:07.536Z,1013.39
2019-04-20T04:26:17.275Z,1013.48
2019-04-20T04:27:05.894Z,1013.45
2019-04-20T04:28:10.812Z,1013.50
2019-04-20T04:29:19.304Z,1013.48
2019-04-20T04:30:09.496Z,1013.53
2019-04-20T04:31:12.198Z,1013.46
2019-04-20T04:32:21.188Z,1013.48
2019-04-20T04:33:42.781Z,1013.51
2019-04-20T04:34:12.420Z,1013.53
2019-04-20T04:35:09.188Z,1013.53
2019-04-20T04:36:15.401Z,1013.57
2019-04-20T04:37:18.671Z,1013.58
2019-04-20T04:38:15.286Z,1013.54
2019-04-20T04:39:20.982Z,1013.59
2019-04-20T04:40:27.944Z,1013.61
2019-04-20T04:42:39.163Z,1013.61
2019-04-20T04:43:19.721Z,1013.57
2019-04-20T04:44:11.064Z,1013.61
2019-04-20T04:45:04.897Z,1013.62
2019-04-20T04:45:57.606Z,1013.64
2019-04-20T04:47:00.203Z,1013.65
2019-04-20T04:47:59.806Z,1013.64
2019-04-20T04:49:05.325Z,1013.64
2019-04-20T04:50:09.167Z,1013.66
2019-04-20T04:51:07.066Z,1013.70
2019-04-20T04:52:06.328Z,1013.66
2019-04-20T04:53:09.050Z,1013.68
2019-04-20T04:54:13.096Z,1013.70
2019-04-20T04:55:12.160Z,1013.70
2019-04-20T04:56:07.376Z,1013.64
2019-04-20T04:57:01.213Z,1013.70
2019-04-20T04:58:00.206Z,1013.77
2019-04-20T04:59:00.265Z,1013.69
2019-04-20T04:59:59.520Z,1013.74
2019-04-20T05:01:05.638Z,1013.77
2019-04-20T05:02:02.130Z,1013.72
2019-04-20T05:03:03.859Z,1013.66
2019-04-20T05:04:21.051Z,1013.68
2019-04-20T05:05:23.797Z,1013.70
2019-04-20T05:06:19.701Z,1013.66
2019-04-20T05:07:16.057Z,1013.70
2019-04-20T05:08:12.786Z,1013.70
2019-04-20T05:09:06.074Z,1013.73
2019-04-20T05:10:05.561Z,1013.72
2019-04-20T05:11:02.737Z,1013.65
2019-04-20T05:12:09.839Z,1013.65
2019-04-20T05:13:04.959Z,1013.68
2019-04-20T05:14:07.504Z,1013.68
2019-04-20T05:15:13.340Z,1013.69
2019-04-20T05:16:18.920Z,1013.72
2019-04-20T05:17:20.638Z,1013.70
2019-04-20T05:18:27.612Z,1013.73
2019-04-20T05:19:41.299Z,1013.71
2019-04-20T05:20:21.978Z,1013.75
2019-04-20T05:21:25.322Z,1013.67
2019-04-20T05:22:26.180Z,1013.71
2019-04-20T05:23:20.779Z,1013.64
2019-04-20T05:24:22.956Z,1013.69
2019-04-20T05:25:29.749Z,1013.73
2019-04-20T05:26:26.820Z,1013.69
2019-04-20T05:28:20.701Z,1013.65
2019-04-20T05:29:15.469Z,1013.63
2019-04-20T05:30:07.824Z,1013.66
2019-04-20T05:31:07.946Z,1013.67
2019-04-20T05:32:13.080Z,1013.67
2019-04-20T05:33:16.807Z,1013.57
2019-04-20T05:34:33.250Z,1013.59
2019-04-20T05:35:37.848Z,1013.61
2019-04-20T05:36:29.780Z,1013.58
2019-04-20T05:37:34.363Z,1013.61
2019-04-20T05:38:35.457Z,1013.58
2019-04-20T05:39:32.658Z,1013.56
2019-04-20T05:40:35.203Z,1013.59
2019-04-20T05:41:26.824Z,1013.57
2019-04-20T05:42:30.298Z,1013.58
2019-04-20T05:43:29.209Z,1013.56
2019-04-20T05:44:22.084Z,1013.55
2019-04-20T05:45:25.200Z,1013.49
2019-04-20T05:46:32.048Z,1013.55
2019-04-20T05:47:29.809Z,1013.52
2019-04-20T05:48:24.757Z,1013.57
2019-04-20T05:49:30.309Z,1013.49
2019-04-20T05:50:31.587Z,1013.54
2019-04-20T05:51:36.458Z,1013.52
2019-04-20T05:52:43.836Z,1013.54
2019-04-20T05:53:34.269Z,1013.52
2019-04-20T05:54:32.313Z,1013.47
2019-04-20T05:55:35.967Z,1013.47
2019-04-20T05:56:35.301Z,1013.45
2019-04-20T05:57:38.905Z,1013.47
2019-04-20T05:58:32.775Z,1013.41
2019-04-20T05:59:37.435Z,1013.47
2019-04-20T06:00:39.021Z,1013.48
2019-04-20T06:01:40.817Z,1013.45
2019-04-20T06:02:33.258Z,1013.41
2019-04-20T06:03:33.560Z,1013.44
2019-04-20T06:04:46.974Z,1013.29
2019-04-20T06:05:36.440Z,1013.37
2019-04-20T06:06:37.978Z,1013.42
2019-04-20T06:07:35.960Z,1013.39
2019-04-20T06:08:51.201Z,1013.41
2019-04-20T06:09:39.789Z,1013.39
2019-04-20T06:10:41.280Z,1013.40
2019-04-20T06:11:50.096Z,1013.42
2019-04-20T06:12:38.100Z,1013.37
2019-04-20T06:13:29.998Z,1013.40
2019-04-20T06:14:31.607Z,1013.39
2019-04-20T06:15:40.732Z,1013.36
2019-04-20T06:16:44.075Z,1013.43
2019-04-20T06:17:40.024Z,1013.42
2019-04-20T06:18:32.309Z,1013.46
2019-04-20T06:19:35.485Z,1013.44
2019-04-20T06:20:41.211Z,1013.49
2019-04-20T06:21:38.036Z,1013.44
2019-04-20T06:22:57.443Z,1013.45
2019-04-20T06:23:47.107Z,1013.43
2019-04-20T06:24:44.886Z,1013.47
2019-04-20T06:25:45.919Z,1013.44
2019-04-20T06:26:49.034Z,1013.47
2019-04-20T06:27:40.999Z,1013.44
2019-04-20T06:28:37.892Z,1013.41
2019-04-20T06:29:43.980Z,1013.38
2019-04-20T06:30:33.176Z,1013.39
2019-04-20T06:31:40.667Z,1013.41
2019-04-20T06:32:44.325Z,1013.42
2019-04-20T06:33:52.039Z,1013.48
2019-04-20T06:34:36.631Z,1013.41
2019-04-20T06:36:01.011Z,1013.43
2019-04-20T06:37:48.632Z,1013.42
2019-04-20T06:39:44.678Z,1013.34
2019-04-20T06:42:02.207Z,1013.44
2019-04-20T06:42:39.696Z,1013.32
2019-04-20T06:43:45.842Z,1013.39
2019-04-20T06:44:41.294Z,1013.36
2019-04-20T06:45:53.442Z,1013.37
2019-04-20T06:46:54.877Z,1013.35
2019-04-20T06:47:47.076Z,1013.42
2019-04-20T06:48:49.962Z,1013.43
2019-04-20T06:49:46.882Z,1013.44
2019-04-20T06:50:41.561Z,1013.33
2019-04-20T06:51:47.587Z,1013.35
2019-04-20T06:52:36.802Z,1013.32
2019-04-20T06:53:46.918Z,1013.30
2019-04-20T06:54:43.441Z,1013.36
2019-04-20T06:55:48.593Z,1013.30
2019-04-20T06:56:48.138Z,1013.34
2019-04-20T06:57:51.656Z,1013.28
2019-04-20T06:59:04.425Z,1013.34
2019-04-20T06:59:48.926Z,1013.30
2019-04-20T07:00:46.650Z,1013.26
2019-04-20T07:01:56.890Z,1013.25
2019-04-20T07:04:06.665Z,1013.27
2019-04-20T07:04:47.492Z,1013.34
2019-04-20T07:05:44.728Z,1013.30
2019-04-20T07:08:56.955Z,1013.35
2019-04-20T07:10:06.804Z,1013.33
2019-04-20T07:10:51.727Z,1013.28
2019-04-20T07:11:46.456Z,1013.35
2019-04-20T07:12:45.070Z,1013.28
2019-04-20T07:13:39.459Z,1013.28
2019-04-20T07:14:41.535Z,1013.32
2019-04-20T07:15:42.779Z,1013.32
2019-04-20T07:16:44.758Z,1013.29
2019-04-20T07:17:54.713Z,1013.30
2019-04-20T07:18:53.201Z,1013.27
2019-04-20T07:19:44.480Z,1013.33
2019-04-20T07:20:55.419Z,1013.31
2019-04-20T07:22:07.227Z,1013.28
2019-04-20T07:22:55.955Z,1013.28
2019-04-20T07:23:55.872Z,1013.26
2019-04-20T07:26:06.734Z,1013.25
2019-04-20T07:26:49.270Z,1013.26
2019-04-20T07:27:56.478Z,1013.20
2019-04-20T07:28:54.175Z,1013.22
2019-04-20T07:29:51.913Z,1013.27
2019-04-20T07:30:50.264Z,1013.23
2019-04-20T07:31:49.946Z,1013.20
2019-04-20T07:34:51.677Z,1013.21
2019-04-20T07:35:53.419Z,1013.22
2019-04-20T07:36:57.427Z,1013.17
2019-04-20T07:38:56.799Z,1013.10
2019-04-20T07:39:53.960Z,1013.09
2019-04-20T07:40:49.984Z,1013.13
2019-04-20T07:41:56.954Z,1013.08
2019-04-20T07:42:55.267Z,1013.06
2019-04-20T07:44:04.438Z,1013.08
2019-04-20T07:45:55.879Z,1013.02
2019-04-20T07:47:01.822Z,1013.03
2019-04-20T07:48:01.441Z,1013.00
2019-04-20T07:48:58.039Z,1013.00
2019-04-20T07:49:49.818Z,1013.02
2019-04-20T07:50:44.893Z,1012.96
2019-04-20T07:51:39.097Z,1012.96
2019-04-20T07:52:46.170Z,1012.96
2019-04-20T07:54:07.682Z,1012.93
2019-04-20T07:55:19.212Z,1012.95
2019-04-20T07:56:02.426Z,1012.92
2019-04-20T07:56:53.740Z,1012.92
2019-04-20T07:57:52.858Z,1012.93
2019-04-20T07:58:47.489Z,1012.88
2019-04-20T07:59:55.821Z,1012.90
2019-04-20T08:01:04.168Z,1012.92
2019-04-20T08:02:08.216Z,1012.89
2019-04-20T08:03:03.031Z,1012.91
2019-04-20T08:04:05.644Z,1012.87
2019-04-20T08:04:56.339Z,1012.87
2019-04-20T08:05:48.510Z,1012.87
2019-04-20T08:06:45.664Z,1012.86
2019-04-20T08:07:49.595Z,1012.91
2019-04-20T08:08:53.093Z,1012.83
2019-04-20T08:09:46.636Z,1012.85
2019-04-20T08:10:53.965Z,1012.76
2019-04-20T08:12:07.808Z,1012.82
2019-04-20T08:13:02.239Z,1012.81
2019-04-20T08:13:59.021Z,1012.78
2019-04-20T08:15:05.035Z,1012.75
2019-04-20T08:16:00.780Z,1012.86
2019-04-20T08:17:14.418Z,1012.81
2019-04-20T08:18:02.445Z,1012.77
2019-04-20T08:18:59.775Z,1012.76
2019-04-20T08:20:00.137Z,1012.75
2019-04-20T08:21:16.701Z,1012.77
2019-04-20T08:21:58.829Z,1012.73
2019-04-20T08:22:58.595Z,1012.69
2019-04-20T08:24:02.499Z,1012.72
2019-04-20T08:24:59.248Z,1012.74
2019-04-20T08:25:54.312Z,1012.71
2019-04-20T08:26:49.676Z,1012.74
2019-04-20T08:27:42.315Z,1012.65
2019-04-20T08:28:46.776Z,1012.66
2019-04-20T08:29:53.002Z,1012.65
2019-04-20T08:31:02.350Z,1012.63
2019-04-20T08:32:04.419Z,1012.66
2019-04-20T08:32:58.535Z,1012.63
2019-04-20T08:34:15.272Z,1012.53
2019-04-20T08:35:05.069Z,1012.57
2019-04-20T08:36:04.680Z,1012.59
2019-04-20T08:37:01.391Z,1012.60
2019-04-20T08:38:35.005Z,1012.62
2019-04-20T08:40:07.174Z,1012.57
2019-04-20T08:40:59.622Z,1012.54
2019-04-20T08:42:06.340Z,1012.58
2019-04-20T08:43:17.253Z,1012.58
2019-04-20T08:44:09.441Z,1012.54
2019-04-20T08:46:05.309Z,1012.54
2019-04-20T08:47:12.255Z,1012.56
2019-04-20T08:48:14.081Z,1012.52
2019-04-20T08:49:11.328Z,1012.46
2019-04-20T08:50:12.074Z,1012.48
2019-04-20T08:51:06.073Z,1012.47
2019-04-20T08:52:22.995Z,1012.45
2019-04-20T08:53:16.042Z,1012.46
2019-04-20T08:54:03.389Z,1012.46
2019-04-20T08:55:04.918Z,1012.48
2019-04-20T08:56:00.024Z,1012.46
2019-04-20T08:56:52.253Z,1012.47
2019-04-20T08:57:46.791Z,1012.34
2019-04-20T08:58:46.106Z,1012.40
2019-04-20T08:59:48.229Z,1012.44
2019-04-20T09:00:53.614Z,1012.45
2019-04-20T09:01:46.831Z,1012.43
2019-04-20T09:02:52.143Z,1012.48
2019-04-20T09:03:58.911Z,1012.43
2019-04-20T09:04:55.225Z,1012.45
2019-04-20T09:06:00.514Z,1012.48
2019-04-20T09:07:02.324Z,1012.41
2019-04-20T09:08:00.498Z,1012.40
2019-04-20T09:09:07.648Z,1012.43
2019-04-20T09:10:14.369Z,1012.38
2019-04-20T09:11:08.282Z,1012.42
2019-04-20T09:12:05.843Z,1012.43
2019-04-20T09:13:02.343Z,1012.40
2019-04-20T09:13:55.196Z,1012.40
2019-04-20T09:14:49.094Z,1012.38
2019-04-20T09:15:47.215Z,1012.34
2019-04-20T09:16:54.559Z,1012.33
2019-04-20T09:17:56.040Z,1012.29
2019-04-20T09:18:58.964Z,1012.33
2019-04-20T09:19:58.625Z,1012.28
2019-04-20T09:20:58.925Z,1012.28
2019-04-20T09:21:55.161Z,1012.28
2019-04-20T09:23:06.958Z,1012.27
2019-04-20T09:25:25.064Z,1012.20
2019-04-20T09:26:10.077Z,1012.30
2019-04-20T09:27:05.604Z,1012.26
2019-04-20T09:27:59.684Z,1012.26
2019-04-20T09:29:11.794Z,1012.23
2019-04-20T09:30:09.138Z,1012.23
2019-04-20T09:31:09.499Z,1012.21
2019-04-20T09:32:11.390Z,1012.24
2019-04-20T09:33:14.315Z,1012.22
2019-04-20T09:34:06.510Z,1012.24
2019-04-20T09:35:13.584Z,1012.22
2019-04-20T09:36:10.015Z,1012.23
2019-04-20T09:37:16.808Z,1012.21
2019-04-20T09:38:11.826Z,1012.23
2019-04-20T09:39:06.186Z,1012.20
2019-04-20T09:40:15.066Z,1012.23
2019-04-20T09:41:10.055Z,1012.19
2019-04-20T09:42:00.478Z,1012.22
2019-04-20T09:42:54.290Z,1012.18
2019-04-20T09:43:52.576Z,1012.10
2019-04-20T09:44:55.952Z,1012.15
2019-04-20T09:46:00.033Z,1012.14
2019-04-20T09:46:59.423Z,1012.08
2019-04-20T09:47:57.042Z,1012.16
2019-04-20T09:48:59.296Z,1012.15
2019-04-20T09:50:08.967Z,1012.18
2019-04-20T09:51:16.961Z,1012.15
2019-04-20T09:52:11.149Z,1012.11
2019-04-20T09:53:10.075Z,1012.17
2019-04-20T09:54:17.071Z,1012.06
2019-04-20T09:55:10.765Z,1012.17
2019-04-20T09:56:12.983Z,1012.13
2019-04-20T09:57:14.989Z,1012.13
2019-04-20T09:58:08.435Z,1012.09
2019-04-20T09:59:16.364Z,1012.08
2019-04-20T10:00:15.517Z,1012.01
2019-04-20T10:01:13.291Z,1011.99
2019-04-20T10:02:06.633Z,1012.02
2019-04-20T10:02:58.222Z,1012.00
2019-04-20T10:03:57.083Z,1011.99
2019-04-20T10:04:57.758Z,1011.94
2019-04-20T10:05:57.476Z,1012.01
2019-04-20T10:07:00.022Z,1012.02
2019-04-20T10:08:03.350Z,1011.99
2019-04-20T10:09:02.846Z,1011.91
2019-04-20T10:09:58.255Z,1011.94
2019-04-20T10:10:57.454Z,1012.03
2019-04-20T10:11:59.568Z,1011.99
2019-04-20T10:12:58.408Z,1011.99
2019-04-20T10:13:59.298Z,1011.94
2019-04-20T10:15:05.092Z,1011.90
2019-04-20T10:15:59.801Z,1011.89
2019-04-20T10:17:00.284Z,1011.88
2019-04-20T10:17:59.584Z,1011.83
2019-04-20T10:18:58.852Z,1011.89
2019-04-20T10:20:02.558Z,1011.85
2019-04-20T10:21:01.978Z,1011.84
2019-04-20T10:22:00.426Z,1011.87
2019-04-20T10:23:00.603Z,1011.86
2019-04-20T10:24:00.766Z,1011.86
2019-04-20T10:25:00.874Z,1011.89
2019-04-20T10:26:00.724Z,1011.83
2019-04-20T10:27:01.226Z,1011.88
2019-04-20T10:28:01.347Z,1011.90
2019-04-20T10:29:01.625Z,1011.93
2019-04-20T10:30:04.731Z,1011.83
2019-04-20T10:31:02.289Z,1011.82
2019-04-20T10:32:05.714Z,1011.89
2019-04-20T10:33:03.502Z,1011.78
2019-04-20T10:34:03.930Z,1011.80
2019-04-20T10:35:02.555Z,1011.83
2019-04-20T10:36:03.553Z,1011.77
2019-04-20T10:37:03.881Z,1011.82
2019-04-20T10:38:03.230Z,1011.80
2019-04-20T10:39:02.424Z,1011.82
2019-04-20T10:40:04.746Z,1011.79
2019-04-20T10:41:11.674Z,1011.79
2019-04-20T10:42:06.058Z,1011.81
2019-04-20T10:43:04.521Z,1011.74
2019-04-20T10:44:03.229Z,1011.74
2019-04-20T10:45:04.694Z,1011.73
2019-04-20T10:46:04.714Z,1011.75
2019-04-20T10:47:05.013Z,1011.75
2019-04-20T10:48:05.428Z,1011.75
2019-04-20T10:49:04.877Z,1011.70
2019-04-20T10:50:05.316Z,1011.77
2019-04-20T10:51:05.233Z,1011.77
2019-04-20T10:52:05.477Z,1011.73
2019-04-20T10:53:05.760Z,1011.75
2019-04-20T10:54:04.992Z,1011.81
2019-04-20T10:55:06.156Z,1011.73
2019-04-20T10:56:27.530Z,1011.71
2019-04-20T10:57:05.876Z,1011.75
2019-04-20T10:58:07.319Z,1011.74
2019-04-20T10:59:07.729Z,1011.72
2019-04-20T11:00:06.144Z,1011.60
2019-04-20T11:01:07.413Z,1011.72
2019-04-20T11:02:07.796Z,1011.64
2019-04-20T11:03:07.986Z,1011.68
2019-04-20T11:04:08.445Z,1011.69
2019-04-20T11:05:08.556Z,1011.59
2019-04-20T11:06:07.137Z,1011.60
2019-04-20T11:07:08.306Z,1011.58
2019-04-20T11:08:08.505Z,1011.61
2019-04-20T11:09:08.915Z,1011.54
2019-04-20T11:10:17.807Z,1011.57
2019-04-20T11:11:16.646Z,1011.60
2019-04-20T11:12:10.515Z,1011.56
2019-04-20T11:13:09.620Z,1011.56
2019-04-20T11:14:16.328Z,1011.59
2019-04-20T11:15:10.638Z,1011.53
2019-04-20T11:16:08.788Z,1011.55
2019-04-20T11:17:09.038Z,1011.55
2019-04-20T11:18:11.213Z,1011.54
2019-04-20T11:19:09.506Z,1011.49
2019-04-20T11:20:10.607Z,1011.52
2019-04-20T11:21:11.273Z,1011.55
2019-04-20T11:22:10.451Z,1011.46
2019-04-20T11:23:11.832Z,1011.47
2019-04-20T11:24:10.348Z,1011.50
2019-04-20T11:25:10.537Z,1011.48
2019-04-20T11:26:10.706Z,1011.41
2019-04-20T11:27:12.046Z,1011.41
2019-04-20T11:28:12.344Z,1011.36
2019-04-20T11:29:11.209Z,1011.28
2019-04-20T11:30:12.105Z,1011.33
2019-04-20T11:31:12.612Z,1011.28
2019-04-20T11:32:13.462Z,1011.34
2019-04-20T11:33:14.053Z,1011.34
2019-04-20T11:34:15.025Z,1011.28
2019-04-20T11:35:21.293Z,1011.37
2019-04-20T11:36:14.943Z,1011.21
2019-04-20T11:37:13.026Z,1011.21
2019-04-20T11:38:15.431Z,1011.28
2019-04-20T11:39:37.017Z,1011.22
2019-04-20T11:40:13.031Z,1011.23
2019-04-20T11:41:19.969Z,1011.20
2019-04-20T11:42:15.406Z,1011.10
2019-04-20T11:43:13.666Z,1011.13
2019-04-20T11:44:15.751Z,1011.13
2019-04-20T11:45:14.991Z,1011.19
2019-04-20T11:46:14.567Z,1010.94
2019-04-20T11:47:14.747Z,1011.02
2019-04-20T11:48:15.820Z,1011.07
2019-04-20T11:49:15.675Z,1011.05
2019-04-20T11:50:15.626Z,1011.12
2019-04-20T11:51:15.817Z,1011.03
2019-04-20T11:52:18.294Z,1011.07
2019-04-20T11:53:17.479Z,1010.99
2019-04-20T11:54:16.619Z,1010.99
2019-04-20T11:55:16.035Z,1010.99
2019-04-20T11:56:21.292Z,1011.00
2019-04-20T11:57:17.497Z,1010.99
2019-04-20T11:58:19.612Z,1010.87
2019-04-20T11:59:16.975Z,1010.94
2019-04-20T12:00:17.264Z,1010.92
2019-04-20T12:01:20.823Z,1010.94
2019-04-20T12:02:25.361Z,1010.95
2019-04-20T12:03:24.767Z,1010.96
2019-04-20T12:04:34.005Z,1010.85
2019-04-20T12:05:28.323Z,1010.86
2019-04-20T12:06:21.074Z,1010.80
2019-04-20T12:07:19.231Z,1010.84
2019-04-20T12:08:18.696Z,1010.81
2019-04-20T12:09:19.056Z,1010.78
2019-04-20T12:10:22.208Z,1010.82
2019-04-20T12:11:31.959Z,1010.73
2019-04-20T12:12:30.091Z,1010.71
2019-04-20T12:13:21.062Z,1010.65
2019-04-20T12:14:20.674Z,1010.68
2019-04-20T12:15:19.442Z,1010.70
2019-04-20T12:16:19.637Z,1010.61
2019-04-20T12:17:19.808Z,1010.66
2019-04-20T12:18:20.026Z,1010.69
2019-04-20T12:19:20.745Z,1010.63
2019-04-20T12:20:20.909Z,1010.60
2019-04-20T12:21:21.092Z,1010.59
2019-04-20T12:22:21.520Z,1010.62
2019-04-20T12:23:22.351Z,1010.56
2019-04-20T12:24:22.665Z,1010.54
2019-04-20T12:25:21.132Z,1010.52
2019-04-20T12:26:22.631Z,1010.51
2019-04-20T12:27:22.779Z,1010.44
2019-04-20T12:28:22.056Z,1010.48
2019-04-20T12:29:23.793Z,1010.50
2019-04-20T12:30:23.908Z,1010.47
2019-04-20T12:31:24.697Z,1010.47
2019-04-20T12:32:29.597Z,1010.45
2019-04-20T12:33:24.473Z,1010.47
2019-04-20T12:34:22.799Z,1010.50
2019-04-20T12:35:24.244Z,1010.46
2019-04-20T12:36:23.977Z,1010.30
2019-04-20T12:37:25.087Z,1010.28
2019-04-20T12:38:23.546Z,1010.45